This is the latest recevied weather packets stored in our database for station/object N3WXO-1. If no packets are shown the sender has not sent any weather packets the latest 1 day(s).
| Time | Temp. | Humidity | Pressure | Rain* | Wind** | Luminosity | Snow |
|---|---|---|---|---|---|---|---|
| 1778003428 | 27.22° C | 40% | 1008.5 hPa | 0 mm | 4.02 m/s, 230° | 114 W/m² | - |
| 1778003122 | 27.22° C | 41% | 1008.6 hPa | 0 mm | 2.68 m/s, 224° | 121 W/m² | - |
| 1778002815 | 26.67° C | 40% | 1008.8 hPa | 0 mm | 2.68 m/s, 242° | 134 W/m² | - |
| 1778002524 | 26.67° C | 40% | 1008.8 hPa | 0 mm | 4.02 m/s, 188° | 786 W/m² | - |
| 1778002215 | 26.11° C | 39% | 1008.7 hPa | 0 mm | 5.36 m/s, 153° | 703 W/m² | - |
| 1778001922 | 26.11° C | 46% | 1008.7 hPa | 0 mm | 2.68 m/s, 257° | 144 W/m² | - |
| 1778001629 | 25.56° C | 47% | 1008.8 hPa | 0 mm | 1.79 m/s, 205° | 761 W/m² | - |
| 1778001321 | 25.56° C | 47% | 1008.9 hPa | 0 mm | 1.79 m/s, 260° | 169 W/m² | - |
| 1778001023 | 25.56° C | 47% | 1008.8 hPa | 0 mm | 2.24 m/s, 234° | 130 W/m² | - |
| 1778000734 | 25.56° C | 47% | 1008.9 hPa | 0 mm | 3.13 m/s, 227° | 932 W/m² | - |
| 1778000423 | 25.56° C | 47% | 1008.9 hPa | 0 mm | 2.24 m/s, 240° | 160 W/m² | - |
| 1778000128 | 26.11° C | 48% | 1008.9 hPa | 0 mm | 1.34 m/s, 279° | 900 W/m² | - |
| 1777999817 | 26.11° C | 49% | 1008.9 hPa | 0 mm | 2.24 m/s, 259° | 768 W/m² | - |
| 1777999529 | 26.11° C | 47% | 1009 hPa | 0 mm | 3.13 m/s, 261° | 868 W/m² | - |
| 1777999219 | 25.56° C | 50% | 1009.2 hPa | 0 mm | 3.13 m/s, 250° | 858 W/m² | - |
| 1777998915 | 25.56° C | 50% | 1009.4 hPa | 0 mm | 2.24 m/s, 245° | 858 W/m² | - |
| 1777998620 | 25.56° C | 49% | 1009.6 hPa | 0 mm | 3.13 m/s, 265° | 854 W/m² | - |
| 1777998325 | 25.56° C | 49% | 1009.6 hPa | 0 mm | 3.58 m/s, 246° | 844 W/m² | - |
| 1777998026 | 25.56° C | 50% | 1009.7 hPa | 0 mm | 3.13 m/s, 214° | 840 W/m² | - |
| 1777997716 | 25.56° C | 48% | 1009.7 hPa | 0 mm | 1.79 m/s, 232° | 837 W/m² | - |
| 1777997423 | 25.56° C | 52% | 1009.8 hPa | 0 mm | 2.24 m/s, 241° | 831 W/m² | - |
| 1777997133 | 25.56° C | 49% | 1009.8 hPa | 0 mm | 3.13 m/s, 214° | 823 W/m² | - |
| 1777996822 | 25.56° C | 53% | 1009.8 hPa | 0 mm | 2.68 m/s, 243° | 821 W/m² | - |
| 1777996539 | 25° C | 53% | 1009.9 hPa | 0 mm | 2.24 m/s, 247° | 768 W/m² | - |
| 1777996236 | 25° C | 54% | 1009.8 hPa | 0 mm | 1.34 m/s, 251° | 810 W/m² | - |
* Rain latest hour (hover to see other rain measurements)
** Current wind speed in m/s (hover to see current wind gust speed)